Time;durP1;ratioP1;P1;durP2;ratioP2;P2;SDS_P1;SDS_P2;PMS_P1;PMS_P2;Temp;Humidity;BMP_temperature;BMP_pressure;BME280_temperature;BME280_humidity;BME280_pressure;Samples;Min_cycle;Max_cycle;Signal;HPM_P1;HPM_P2
2022/09/25 00:01:45;;;;;;;26.47;20.07;;;;;;;;;;5095134;28;20464;-71
2022/09/25 00:04:13;;;;;;;26.63;21.90;;;;;;;;;;5095509;28;20479;-71
2022/09/25 00:06:41;;;;;;;28.40;22.27;;;;;;;;;;5095696;28;20447;-71
2022/09/25 00:09:08;;;;;;;27.07;21.90;;;;;;;;;;5095666;28;20571;-71
2022/09/25 00:11:37;;;;;;;30.50;22.90;;;;;;;;;;5095443;28;20455;-71
2022/09/25 00:14:04;;;;;;;28.93;21.30;;;;;;;;;;5095331;28;20549;-71
2022/09/25 00:16:32;;;;;;;24.40;21.37;;;;;;;;;;5095497;28;20450;-71
2022/09/25 00:21:51;;;;;;;23.40;20.00;;;;;;;;;;5095722;28;20413;-72
2022/09/25 00:24:19;;;;;;;23.13;18.40;;;;;;;;;;5095137;28;20980;-72
2022/09/25 00:26:46;;;;;;;24.77;19.97;;;;;;;;;;5095293;28;20458;-72
2022/09/25 00:29:15;;;;;;;23.07;20.23;;;;;;;;;;5095190;28;20483;-72
2022/09/25 00:31:42;;;;;;;30.10;21.13;;;;;;;;;;5094994;28;20486;-72
2022/09/25 00:34:10;;;;;;;32.23;21.60;;;;;;;;;;5095081;28;20474;-71
2022/09/25 00:36:37;;;;;;;25.57;20.20;;;;;;;;;;5094997;28;20466;-71
2022/09/25 00:39:06;;;;;;;30.83;20.87;;;;;;;;;;5095109;28;20446;-71
2022/09/25 00:41:33;;;;;;;25.87;18.90;;;;;;;;;;5094825;28;20462;-71
2022/09/25 00:44:02;;;;;;;24.87;19.70;;;;;;;;;;5094565;28;20450;-71
2022/09/25 00:46:31;;;;;;;28.10;21.70;;;;;;;;;;5094856;28;20451;-71
2022/09/25 00:49:00;;;;;;;26.23;20.97;;;;;;;;;;5094955;28;20442;-71
2022/09/25 00:51:29;;;;;;;26.97;20.67;;;;;;;;;;5094681;28;20442;-71
2022/09/25 00:53:57;;;;;;;24.30;19.17;;;;;;;;;;5094563;28;20462;-71
2022/09/25 00:56:26;;;;;;;29.10;20.87;;;;;;;;;;5094647;28;20944;-71
2022/09/25 00:58:53;;;;;;;29.10;20.87;;;;;;;;;;5094906;28;20443;-71
2022/09/25 01:01:22;;;;;;;24.23;18.80;;;;;;;;;;5092981;28;20450;-71
2022/09/25 01:03:49;;;;;;;26.27;20.17;;;;;;;;;;5094339;28;21004;-71
2022/09/25 01:06:17;;;;;;;26.60;18.57;;;;;;;;;;5094665;28;20454;-71
2022/09/25 01:08:46;;;;;;;24.73;19.77;;;;;;;;;;5094759;28;20442;-71
2022/09/25 01:11:13;;;;;;;31.40;20.70;;;;;;;;;;5094295;28;20486;-71
2022/09/25 01:13:41;;;;;;;23.97;19.40;;;;;;;;;;5094197;28;20529;-71
2022/09/25 01:16:11;;;;;;;22.60;19.10;;;;;;;;;;5094235;28;20470;-71
2022/09/25 01:18:43;;;;;;;24.50;20.00;;;;;;;;;;5094184;28;20459;-71
2022/09/25 01:21:15;;;;;;;24.47;18.20;;;;;;;;;;5094504;28;20443;-71
2022/09/25 01:23:56;;;;;;;24.03;18.90;;;;;;;;;;5094063;28;20450;-71
2022/09/25 01:26:37;;;;;;;21.57;18.87;;;;;;;;;;5094177;28;20936;-71
2022/09/25 01:29:10;;;;;;;28.33;20.70;;;;;;;;;;5094064;28;20446;-71
2022/09/25 01:31:40;;;;;;;25.27;20.93;;;;;;;;;;5094075;28;20473;-71
2022/09/25 01:34:13;;;;;;;25.73;17.53;;;;;;;;;;5093717;28;20470;-71
2022/09/25 01:36:43;;;;;;;23.87;19.00;;;;;;;;;;5093999;28;20463;-71
2022/09/25 01:39:11;;;;;;;27.03;20.30;;;;;;;;;;5094005;28;20508;-71
2022/09/25 01:41:43;;;;;;;28.40;19.70;;;;;;;;;;5093704;28;20458;-71
2022/09/25 01:44:13;;;;;;;24.37;20.00;;;;;;;;;;5093626;28;20517;-71
2022/09/25 01:46:43;;;;;;;26.20;19.40;;;;;;;;;;5093711;28;20802;-71
2022/09/25 01:49:14;;;;;;;28.10;21.90;;;;;;;;;;5093850;28;20460;-71
2022/09/25 01:51:43;;;;;;;25.20;18.53;;;;;;;;;;5093563;28;20991;-71
2022/09/25 01:54:12;;;;;;;29.53;21.93;;;;;;;;;;5093387;28;20986;-71
2022/09/25 01:56:41;;;;;;;26.00;21.40;;;;;;;;;;5093542;28;20458;-71
2022/09/25 01:59:11;;;;;;;30.00;21.70;;;;;;;;;;5093414;28;20447;-71
2022/09/25 02:01:40;;;;;;;27.87;22.07;;;;;;;;;;5093434;28;20443;-71
2022/09/25 02:04:11;;;;;;;30.40;22.07;;;;;;;;;;5093212;28;21070;-71
2022/09/25 02:06:39;;;;;;;31.10;22.70;;;;;;;;;;5093283;28;20584;-71
2022/09/25 02:09:09;;;;;;;27.20;22.77;;;;;;;;;;5093496;28;20454;-71
2022/09/25 02:11:39;;;;;;;30.50;24.50;;;;;;;;;;5093146;28;20479;-71
2022/09/25 02:14:08;;;;;;;26.57;22.10;;;;;;;;;;5092729;28;20474;-71
2022/09/25 02:16:36;;;;;;;29.00;24.10;;;;;;;;;;5093173;28;20455;-71
2022/09/25 02:21:54;;;;;;;33.70;24.60;;;;;;;;;;5093320;28;20803;-71
2022/09/25 02:24:22;;;;;;;31.13;23.30;;;;;;;;;;5092759;28;20471;-71
2022/09/25 02:26:51;;;;;;;31.57;24.30;;;;;;;;;;5093178;28;20951;-71
2022/09/25 02:29:18;;;;;;;29.57;22.87;;;;;;;;;;5093224;28;20512;-71
2022/09/25 02:31:48;;;;;;;28.07;21.90;;;;;;;;;;5092935;28;20509;-71
2022/09/25 02:34:17;;;;;;;32.33;23.77;;;;;;;;;;5092844;28;20470;-71
2022/09/25 02:36:44;;;;;;;32.13;23.47;;;;;;;;;;5093288;28;20454;-71
2022/09/25 02:39:12;;;;;;;30.50;24.27;;;;;;;;;;5093008;28;20508;-71
2022/09/25 02:41:55;;;;;;;30.47;22.87;;;;;;;;;;5092825;28;20466;-71
2022/09/25 02:44:30;;;;;;;37.10;24.50;;;;;;;;;;5092641;28;20480;-71
2022/09/25 02:47:04;;;;;;;49.77;27.23;;;;;;;;;;5092937;28;20450;-71
2022/09/25 02:49:37;;;;;;;49.70;26.50;;;;;;;;;;5092851;28;20647;-71
2022/09/25 02:52:06;;;;;;;65.90;26.37;;;;;;;;;;5092838;28;20490;-71
2022/09/25 02:54:37;;;;;;;63.30;26.10;;;;;;;;;;5092409;28;20558;-71
2022/09/25 02:57:07;;;;;;;57.43;24.93;;;;;;;;;;5092992;28;20447;-71
2022/09/25 02:59:36;;;;;;;72.10;27.07;;;;;;;;;;5092706;28;20833;-71
2022/09/25 03:02:03;;;;;;;49.47;25.20;;;;;;;;;;5092945;28;20947;-71
2022/09/25 03:04:33;;;;;;;60.20;24.70;;;;;;;;;;5092411;28;20470;-71
2022/09/25 03:07:02;;;;;;;66.33;24.90;;;;;;;;;;5092782;28;20462;-71
2022/09/25 03:09:29;;;;;;;37.20;24.57;;;;;;;;;;5092807;28;20453;-71
2022/09/25 03:11:56;;;;;;;63.87;26.40;;;;;;;;;;5093056;28;20474;-71
2022/09/25 03:14:23;;;;;;;48.37;27.07;;;;;;;;;;5092343;28;20475;-71
2022/09/25 03:16:51;;;;;;;53.87;25.23;;;;;;;;;;5092912;28;20810;-71
2022/09/25 03:19:19;;;;;;;60.23;27.87;;;;;;;;;;5092560;28;20457;-71
2022/09/25 03:21:46;;;;;;;162.17;33.40;;;;;;;;;;5092656;28;20947;-71
2022/09/25 03:24:15;;;;;;;85.93;28.57;;;;;;;;;;5092412;28;20470;-71
2022/09/25 03:26:42;;;;;;;141.47;30.47;;;;;;;;;;5096259;28;20465;-71
2022/09/25 03:29:09;;;;;;;111.37;28.93;;;;;;;;;;5096824;28;20446;-71
2022/09/25 03:31:36;;;;;;;58.73;25.90;;;;;;;;;;5096245;28;21029;-71
2022/09/25 03:34:03;;;;;;;104.93;28.30;;;;;;;;;;5096022;28;20457;-71
2022/09/25 03:36:32;;;;;;;97.53;27.73;;;;;;;;;;5096342;28;20457;-71
2022/09/25 03:39:00;;;;;;;109.87;28.83;;;;;;;;;;5096400;28;20455;-71
2022/09/25 03:41:29;;;;;;;128.87;28.83;;;;;;;;;;5096018;28;20488;-71
2022/09/25 03:43:56;;;;;;;80.27;26.37;;;;;;;;;;5095871;28;20537;-71
2022/09/25 03:46:24;;;;;;;90.50;25.33;;;;;;;;;;5096080;28;20459;-71
2022/09/25 03:48:52;;;;;;;149.33;30.67;;;;;;;;;;5096156;28;20507;-71
2022/09/25 03:51:19;;;;;;;51.87;24.40;;;;;;;;;;5095990;28;20504;-71
2022/09/25 03:53:46;;;;;;;68.13;27.40;;;;;;;;;;5095596;28;20442;-71
2022/09/25 03:56:14;;;;;;;69.13;26.53;;;;;;;;;;5095850;28;20457;-71
2022/09/25 03:58:42;;;;;;;97.90;28.27;;;;;;;;;;5095761;28;20473;-71
2022/09/25 04:01:09;;;;;;;91.23;28.57;;;;;;;;;;5095751;28;20450;-72
2022/09/25 04:03:38;;;;;;;141.53;31.67;;;;;;;;;;5095522;28;20446;-71
2022/09/25 04:06:06;;;;;;;100.00;27.47;;;;;;;;;;5095599;28;20896;-71
2022/09/25 04:08:33;;;;;;;112.50;27.77;;;;;;;;;;5095605;28;20793;-71
2022/09/25 04:11:01;;;;;;;117.20;27.13;;;;;;;;;;5095488;28;20482;-71
2022/09/25 04:13:29;;;;;;;108.83;27.47;;;;;;;;;;5095254;28;20446;-71
2022/09/25 04:15:58;;;;;;;109.57;26.47;;;;;;;;;;5095434;28;20504;-71
2022/09/25 04:18:26;;;;;;;99.07;28.50;;;;;;;;;;5095375;28;20449;-71
2022/09/25 04:20:53;;;;;;;136.43;29.23;;;;;;;;;;5095518;28;20814;-71
2022/09/25 04:23:20;;;;;;;149.93;28.53;;;;;;;;;;5095510;28;20446;-71
2022/09/25 04:25:48;;;;;;;105.27;25.70;;;;;;;;;;5095007;28;20975;-71
2022/09/25 04:28:15;;;;;;;250.70;36.20;;;;;;;;;;5095285;28;20457;-71
2022/09/25 04:30:42;;;;;;;267.83;33.87;;;;;;;;;;5095093;28;20486;-71
2022/09/25 04:35:56;;;;;;;82.13;25.53;;;;;;;;;;5094832;28;20446;-71
2022/09/25 04:38:23;;;;;;;184.70;33.50;;;;;;;;;;5095029;28;20484;-71
2022/09/25 04:40:50;;;;;;;153.40;29.80;;;;;;;;;;5094841;28;20797;-71
2022/09/25 04:43:17;;;;;;;96.40;27.80;;;;;;;;;;5095133;28;20462;-72
2022/09/25 04:45:46;;;;;;;112.57;29.80;;;;;;;;;;5094654;28;20478;-71
2022/09/25 04:48:14;;;;;;;51.37;25.40;;;;;;;;;;5094967;28;20451;-71
2022/09/25 04:50:48;;;;;;;62.20;24.40;;;;;;;;;;5094764;28;20491;-71
2022/09/25 04:53:15;;;;;;;91.80;25.50;;;;;;;;;;5095011;28;20451;-71
2022/09/25 04:55:42;;;;;;;36.97;23.67;;;;;;;;;;5094453;28;20506;-71
2022/09/25 04:58:10;;;;;;;104.17;24.70;;;;;;;;;;5094700;28;20451;-71
2022/09/25 05:00:38;;;;;;;92.70;23.87;;;;;;;;;;5094546;28;20983;-71
2022/09/25 05:03:05;;;;;;;163.03;31.30;;;;;;;;;;5094776;28;20979;-71
2022/09/25 05:05:34;;;;;;;120.00;28.03;;;;;;;;;;5094145;28;20470;-71
2022/09/25 05:08:01;;;;;;;227.67;32.97;;;;;;;;;;5094529;28;20458;-71
2022/09/25 05:10:30;;;;;;;146.43;31.00;;;;;;;;;;5094438;28;20970;-71
2022/09/25 05:12:58;;;;;;;269.27;35.10;;;;;;;;;;5094435;28;20978;-71
2022/09/25 05:15:26;;;;;;;107.33;27.17;;;;;;;;;;5094057;28;20976;-71
2022/09/25 05:17:59;;;;;;;149.47;29.70;;;;;;;;;;5094355;28;20519;-71
2022/09/25 05:20:26;;;;;;;91.60;27.70;;;;;;;;;;5094272;28;20451;-71
2022/09/25 05:22:56;;;;;;;128.63;26.70;;;;;;;;;;5094341;28;20970;-71
2022/09/25 05:25:24;;;;;;;82.53;24.23;;;;;;;;;;5093784;28;20520;-71
2022/09/25 05:27:51;;;;;;;127.90;27.57;;;;;;;;;;5094066;28;20442;-71
2022/09/25 05:30:19;;;;;;;108.33;49.00;;;;;;;;;;5093997;28;20829;-71
2022/09/25 05:32:48;;;;;;;67.63;29.90;;;;;;;;;;5093862;28;20486;-71
2022/09/25 05:35:16;;;;;;;127.53;26.93;;;;;;;;;;5093837;28;20971;-71
2022/09/25 05:37:43;;;;;;;96.83;25.83;;;;;;;;;;5093924;28;20447;-71
2022/09/25 05:40:11;;;;;;;98.97;24.37;;;;;;;;;;5094043;28;20450;-71
2022/09/25 05:42:39;;;;;;;69.10;23.77;;;;;;;;;;5093825;28;20493;-71
2022/09/25 05:45:06;;;;;;;80.10;24.07;;;;;;;;;;5093639;28;20466;-71
2022/09/25 05:47:33;;;;;;;60.53;26.17;;;;;;;;;;5093112;28;20451;-71
2022/09/25 05:50:01;;;;;;;188.50;26.87;;;;;;;;;;5093676;28;20454;-71
2022/09/25 05:52:28;;;;;;;110.37;22.50;;;;;;;;;;5093476;28;20486;-71
2022/09/25 05:54:56;;;;;;;80.63;21.57;;;;;;;;;;5093452;28;20471;-71
2022/09/25 05:57:24;;;;;;;98.70;21.73;;;;;;;;;;5093539;28;20504;-72
2022/09/25 05:59:51;;;;;;;58.30;21.67;;;;;;;;;;5093566;28;20458;-71
2022/09/25 06:02:18;;;;;;;89.97;22.50;;;;;;;;;;5093639;28;20473;-71
2022/09/25 06:04:45;;;;;;;135.03;23.00;;;;;;;;;;5093116;28;20473;-71
2022/09/25 06:07:13;;;;;;;104.73;22.63;;;;;;;;;;5093381;28;20446;-71
2022/09/25 06:09:40;;;;;;;98.27;22.47;;;;;;;;;;5093383;28;20457;-71
2022/09/25 06:12:07;;;;;;;95.27;21.73;;;;;;;;;;5093461;28;20851;-71
2022/09/25 06:14:36;;;;;;;91.80;23.87;;;;;;;;;;5092881;28;20467;-71
2022/09/25 06:17:03;;;;;;;70.50;19.90;;;;;;;;;;5093312;28;20545;-71
2022/09/25 06:19:30;;;;;;;94.47;19.07;;;;;;;;;;5093123;28;20451;-71
2022/09/25 06:21:57;;;;;;;61.93;19.93;;;;;;;;;;5093363;28;20439;-71
2022/09/25 06:24:24;;;;;;;68.70;18.40;;;;;;;;;;5092842;28;20504;-71
2022/09/25 06:26:51;;;;;;;49.57;16.73;;;;;;;;;;5093093;28;20458;-71
2022/09/25 06:29:18;;;;;;;37.53;16.57;;;;;;;;;;5093056;28;20466;-71
2022/09/25 06:31:47;;;;;;;84.30;30.17;;;;;;;;;;5093014;28;20478;-71
2022/09/25 06:34:14;;;;;;;48.03;17.20;;;;;;;;;;5092775;28;20928;-71
2022/09/25 06:36:41;;;;;;;41.23;16.93;;;;;;;;;;5092958;28;20446;-71
2022/09/25 06:39:08;;;;;;;59.37;37.40;;;;;;;;;;5092926;28;20458;-71
2022/09/25 06:41:35;;;;;;;55.13;35.80;;;;;;;;;;5092144;28;20948;-71
2022/09/25 06:44:02;;;;;;;58.70;28.00;;;;;;;;;;5091902;28;20524;-71
2022/09/25 06:46:29;;;;;;;50.30;32.90;;;;;;;;;;5091989;28;20533;-72
2022/09/25 06:48:58;;;;;;;38.03;23.33;;;;;;;;;;5092242;28;20451;-71
2022/09/25 06:51:31;;;;;;;28.97;21.53;;;;;;;;;;5092043;28;20483;-73
2022/09/25 06:53:58;;;;;;;66.70;26.77;;;;;;;;;;5091936;28;21343;-71
2022/09/25 06:56:26;;;;;;;38.93;19.10;;;;;;;;;;5092228;28;20542;-71
2022/09/25 06:58:53;;;;;;;43.93;21.73;;;;;;;;;;5093058;28;20511;-71
2022/09/25 07:01:20;;;;;;;32.13;22.73;;;;;;;;;;5096139;28;20446;-71
2022/09/25 07:03:48;;;;;;;40.43;22.03;;;;;;;;;;5095532;28;20454;-72
2022/09/25 07:06:17;;;;;;;49.73;26.97;;;;;;;;;;5095849;28;20817;-71
2022/09/25 07:08:46;;;;;;;33.17;22.03;;;;;;;;;;5095758;28;20557;-71
2022/09/25 07:11:14;;;;;;;33.33;21.97;;;;;;;;;;5095776;28;20486;-71
2022/09/25 07:13:41;;;;;;;51.20;24.20;;;;;;;;;;5095251;28;20537;-71
2022/09/25 07:16:11;;;;;;;56.67;22.13;;;;;;;;;;5095462;28;20470;-71
2022/09/25 07:18:38;;;;;;;29.00;22.00;;;;;;;;;;5095411;28;20451;-71
2022/09/25 07:21:08;;;;;;;48.43;23.20;;;;;;;;;;5095532;28;20457;-71
2022/09/25 07:23:37;;;;;;;39.70;20.77;;;;;;;;;;5095325;28;20966;-71
2022/09/25 07:26:05;;;;;;;38.67;20.53;;;;;;;;;;5095431;28;20462;-71
2022/09/25 07:28:32;;;;;;;39.73;21.00;;;;;;;;;;5095359;28;20465;-71
2022/09/25 07:30:59;;;;;;;34.17;20.17;;;;;;;;;;5095592;28;20834;-71
2022/09/25 07:33:26;;;;;;;30.00;19.77;;;;;;;;;;5094956;28;20478;-71
2022/09/25 07:35:53;;;;;;;35.87;19.67;;;;;;;;;;5094963;28;20470;-71
2022/09/25 07:38:21;;;;;;;29.80;21.80;;;;;;;;;;5095049;28;20450;-71
2022/09/25 07:40:49;;;;;;;34.10;21.50;;;;;;;;;;5094933;28;20461;-71
2022/09/25 07:43:16;;;;;;;39.83;23.20;;;;;;;;;;5095112;28;20446;-71
2022/09/25 07:45:52;;;;;;;31.17;22.33;;;;;;;;;;5094645;28;20474;-71
2022/09/25 07:48:22;;;;;;;39.33;27.20;;;;;;;;;;5094969;28;20943;-71
2022/09/25 07:50:49;;;;;;;30.20;24.10;;;;;;;;;;5094993;28;20990;-71
2022/09/25 07:53:17;;;;;;;32.00;21.60;;;;;;;;;;5094712;28;20947;-71
2022/09/25 07:55:44;;;;;;;28.13;23.17;;;;;;;;;;5094664;28;20951;-71
2022/09/25 07:58:13;;;;;;;28.23;22.77;;;;;;;;;;5095000;28;20487;-71
2022/09/25 08:00:40;;;;;;;27.93;22.40;;;;;;;;;;5094672;28;20447;-71
2022/09/25 08:03:10;;;;;;;30.33;24.70;;;;;;;;;;5094725;28;20533;-71
2022/09/25 08:05:37;;;;;;;68.00;42.77;;;;;;;;;;5094571;28;20558;-71
2022/09/25 08:08:04;;;;;;;29.30;22.40;;;;;;;;;;5094615;28;20462;-71
2022/09/25 08:10:31;;;;;;;29.70;23.80;;;;;;;;;;5094033;28;20829;-71
2022/09/25 08:12:59;;;;;;;29.33;22.33;;;;;;;;;;5094652;28;20635;-71
2022/09/25 08:15:27;;;;;;;35.60;21.13;;;;;;;;;;5094651;28;20831;-71
2022/09/25 08:17:54;;;;;;;27.37;21.73;;;;;;;;;;5094859;28;20454;-72
2022/09/25 08:20:21;;;;;;;29.93;24.27;;;;;;;;;;5094676;28;20951;-72
2022/09/25 08:22:48;;;;;;;35.23;26.60;;;;;;;;;;5094661;28;20446;-72
2022/09/25 08:25:16;;;;;;;49.67;35.80;;;;;;;;;;5094652;28;20495;-72
2022/09/25 08:27:43;;;;;;;46.30;32.97;;;;;;;;;;5094508;28;20451;-72
2022/09/25 08:30:12;;;;;;;69.37;44.27;;;;;;;;;;5095071;28;20459;-72
2022/09/25 08:32:41;;;;;;;65.63;43.40;;;;;;;;;;5094483;28;20580;-72
2022/09/25 08:35:08;;;;;;;53.87;38.07;;;;;;;;;;5094374;28;20470;-72
2022/09/25 08:37:36;;;;;;;34.20;27.07;;;;;;;;;;5094968;28;20451;-72
2022/09/25 08:40:03;;;;;;;37.43;28.80;;;;;;;;;;5094879;28;20884;-72
2022/09/25 08:42:34;;;;;;;258.70;179.87;;;;;;;;;;5094378;28;20463;-73
2022/09/25 08:50:36;;;;;;;36.07;28.17;;;;;;;;;;5094132;28;20430;-73
2022/09/25 08:53:06;;;;;;;36.40;28.23;;;;;;;;;;5093872;28;20483;-73
2022/09/25 08:58:18;;;;;;;35.90;26.47;;;;;;;;;;5093748;28;21008;-73
2022/09/25 09:00:46;;;;;;;32.90;26.27;;;;;;;;;;5094495;28;20446;-73
2022/09/25 09:03:15;;;;;;;35.27;27.17;;;;;;;;;;5093812;28;20446;-73
2022/09/25 09:05:45;;;;;;;39.17;31.03;;;;;;;;;;5093997;28;20910;-73
2022/09/25 09:08:14;;;;;;;37.70;26.87;;;;;;;;;;5093639;28;20572;-72
2022/09/25 09:10:43;;;;;;;33.20;26.77;;;;;;;;;;5093894;28;20447;-73
2022/09/25 09:13:15;;;;;;;35.83;26.90;;;;;;;;;;5093552;28;20498;-73
2022/09/25 09:15:44;;;;;;;36.30;28.20;;;;;;;;;;5093087;28;20490;-72
2022/09/25 09:18:18;;;;;;;36.47;28.87;;;;;;;;;;5093549;28;20935;-72
2022/09/25 09:20:49;;;;;;;34.27;26.87;;;;;;;;;;5093502;28;20838;-72
2022/09/25 09:23:18;;;;;;;39.50;26.97;;;;;;;;;;5092539;28;20960;-72
2022/09/25 09:25:47;;;;;;;36.70;27.70;;;;;;;;;;5092985;28;20475;-72
2022/09/25 09:28:25;;;;;;;39.47;27.53;;;;;;;;;;5093312;28;20554;-72
2022/09/25 09:30:56;;;;;;;38.50;28.70;;;;;;;;;;5093189;28;20976;-72
2022/09/25 09:33:33;;;;;;;37.93;27.80;;;;;;;;;;5093203;28;20493;-72
2022/09/25 09:36:06;;;;;;;42.60;32.77;;;;;;;;;;5092948;28;20478;-72
2022/09/25 09:38:38;;;;;;;29.57;23.90;;;;;;;;;;5092857;28;20461;-72
2022/09/25 09:41:13;;;;;;;35.13;24.30;;;;;;;;;;5093016;28;20909;-73
2022/09/25 09:43:57;;;;;;;34.50;25.60;;;;;;;;;;5109568;27;20958;-72
2022/09/25 09:46:29;;;;;;;36.40;27.70;;;;;;;;;;5109867;28;20449;-72
2022/09/25 09:49:01;;;;;;;46.13;29.80;;;;;;;;;;5109433;28;20453;-72
2022/09/25 09:51:31;;;;;;;40.80;28.27;;;;;;;;;;5109578;28;20489;-72
2022/09/25 09:54:00;;;;;;;44.60;29.60;;;;;;;;;;5109544;28;20445;-72
2022/09/25 09:56:29;;;;;;;32.90;26.43;;;;;;;;;;5109521;28;20442;-72
2022/09/25 09:58:59;;;;;;;33.83;24.97;;;;;;;;;;5109413;28;20461;-72
2022/09/25 10:01:29;;;;;;;35.80;26.97;;;;;;;;;;5109331;28;20972;-72
2022/09/25 10:04:02;;;;;;;36.33;26.90;;;;;;;;;;5109508;28;20462;-72
2022/09/25 10:06:31;;;;;;;36.63;26.00;;;;;;;;;;5109176;28;20481;-72
2022/09/25 10:08:58;;;;;;;31.67;26.17;;;;;;;;;;5109422;28;20460;-72
2022/09/25 10:11:26;;;;;;;37.20;27.27;;;;;;;;;;5109220;28;20456;-72
2022/09/25 10:13:54;;;;;;;48.03;30.40;;;;;;;;;;5108878;28;20981;-72
2022/09/25 10:16:23;;;;;;;54.03;35.30;;;;;;;;;;5109103;28;20449;-72
2022/09/25 10:18:54;;;;;;;111.73;56.20;;;;;;;;;;5109012;28;20450;-73
2022/09/25 10:21:23;;;;;;;48.40;33.23;;;;;;;;;;5109211;28;20446;-72
2022/09/25 10:23:51;;;;;;;44.50;35.77;;;;;;;;;;5108812;28;20498;-72
2022/09/25 10:26:26;;;;;;;33.70;26.40;;;;;;;;;;5108932;28;20450;-72
2022/09/25 10:28:56;;;;;;;32.40;25.27;;;;;;;;;;5109005;28;20515;-72
2022/09/25 10:31:25;;;;;;;47.23;37.47;;;;;;;;;;5108956;28;20457;-72
2022/09/25 10:34:00;;;;;;;38.83;28.70;;;;;;;;;;5108712;28;20446;-72
2022/09/25 10:36:31;;;;;;;37.13;31.50;;;;;;;;;;5108732;28;20456;-72
2022/09/25 10:38:59;;;;;;;31.90;25.87;;;;;;;;;;5108735;28;20449;-72
2022/09/25 10:41:26;;;;;;;38.80;28.33;;;;;;;;;;5108527;28;20452;-72
2022/09/25 10:43:55;;;;;;;33.63;26.47;;;;;;;;;;5108215;28;20485;-72
2022/09/25 10:52:04;;;;;;;35.07;25.20;;;;;;;;;;5108620;28;20572;-72
2022/09/25 10:54:32;;;;;;;34.20;25.90;;;;;;;;;;5098232;28;20561;-71
2022/09/25 10:56:59;;;;;;;93.57;83.00;;;;;;;;;;5095235;28;20669;-71
2022/09/25 10:59:28;;;;;;;33.10;27.60;;;;;;;;;;5094729;28;20450;-72
2022/09/25 11:01:56;;;;;;;50.43;43.93;;;;;;;;;;5094788;28;20458;-72
2022/09/25 11:04:25;;;;;;;33.57;28.77;;;;;;;;;;5094632;28;20824;-72
2022/09/25 11:06:53;;;;;;;34.30;25.20;;;;;;;;;;5094757;28;20450;-71
2022/09/25 11:09:22;;;;;;;30.90;26.40;;;;;;;;;;5094735;28;20518;-72
2022/09/25 11:11:49;;;;;;;41.60;32.87;;;;;;;;;;5094810;28;20442;-72
2022/09/25 11:14:22;;;;;;;35.40;27.60;;;;;;;;;;5094342;28;20478;-72
2022/09/25 11:16:51;;;;;;;38.40;31.70;;;;;;;;;;5094522;28;20454;-72
2022/09/25 11:19:23;;;;;;;31.67;26.10;;;;;;;;;;5094384;28;20799;-72
2022/09/25 11:21:58;;;;;;;42.73;27.80;;;;;;;;;;5094185;28;20450;-72
2022/09/25 11:24:27;;;;;;;29.77;23.90;;;;;;;;;;5094146;28;20485;-72
2022/09/25 11:26:57;;;;;;;35.50;27.90;;;;;;;;;;5094284;28;20455;-72
2022/09/25 11:29:31;;;;;;;56.60;44.13;;;;;;;;;;5094084;28;20456;-72
2022/09/25 11:32:03;;;;;;;34.50;25.70;;;;;;;;;;5094255;28;20809;-73
2022/09/25 11:34:38;;;;;;;95.90;80.03;;;;;;;;;;5093840;28;20565;-73
2022/09/25 11:37:09;;;;;;;32.70;24.83;;;;;;;;;;5094105;28;20928;-73
2022/09/25 11:42:28;;;;;;;49.90;40.10;;;;;;;;;;5093523;28;20552;-74
2022/09/25 11:45:00;;;;;;;33.50;24.20;;;;;;;;;;5093655;28;20505;-74
2022/09/25 11:47:31;;;;;;;51.17;40.57;;;;;;;;;;5093674;28;20461;-74
2022/09/25 11:50:01;;;;;;;119.93;92.73;;;;;;;;;;5093916;28;20461;-74
2022/09/25 11:52:36;;;;;;;34.97;28.87;;;;;;;;;;5093900;28;20451;-74
2022/09/25 11:55:35;;;;;;;46.37;38.27;;;;;;;;;;5093625;28;20477;-74
2022/09/25 11:58:08;;;;;;;36.30;28.20;;;;;;;;;;5094038;28;20823;-74
2022/09/25 12:00:44;;;;;;;36.27;29.07;;;;;;;;;;5093865;28;20466;-73
2022/09/25 12:03:19;;;;;;;77.27;54.87;;;;;;;;;;5093564;28;20490;-74
2022/09/25 12:05:52;;;;;;;76.67;53.93;;;;;;;;;;5092533;28;20817;-74
2022/09/25 12:08:25;;;;;;;34.97;27.17;;;;;;;;;;5093600;28;20971;-74
2022/09/25 12:11:00;;;;;;;51.20;33.13;;;;;;;;;;5093578;28;20454;-73
2022/09/25 12:13:32;;;;;;;151.00;107.93;;;;;;;;;;5093223;28;20511;-73
2022/09/25 12:16:07;;;;;;;48.80;38.37;;;;;;;;;;5093274;28;20873;-73
2022/09/25 12:18:43;;;;;;;146.87;105.10;;;;;;;;;;5093228;28;20476;-74
2022/09/25 12:21:15;;;;;;;36.27;27.57;;;;;;;;;;5093382;28;20485;-74
2022/09/25 12:23:47;;;;;;;53.67;40.80;;;;;;;;;;5092884;28;20856;-73
2022/09/25 12:26:19;;;;;;;39.27;32.10;;;;;;;;;;5093124;28;20936;-73
2022/09/25 12:29:05;;;;;;;39.97;28.70;;;;;;;;;;5093030;28;20453;-73
2022/09/25 12:31:35;;;;;;;30.63;24.80;;;;;;;;;;5092912;28;20447;-73
2022/09/25 12:34:07;;;;;;;33.83;27.80;;;;;;;;;;5092990;28;20965;-73
2022/09/25 12:36:39;;;;;;;119.80;79.10;;;;;;;;;;5092816;28;20816;-73
2022/09/25 12:39:14;;;;;;;60.23;41.53;;;;;;;;;;5092976;28;20936;-73
2022/09/25 12:41:45;;;;;;;54.43;36.03;;;;;;;;;;5092701;28;20478;-73
2022/09/25 12:44:16;;;;;;;34.70;27.97;;;;;;;;;;5092340;28;20491;-73
2022/09/25 12:46:47;;;;;;;30.63;24.40;;;;;;;;;;5092747;28;20447;-73
2022/09/25 12:49:17;;;;;;;47.00;36.90;;;;;;;;;;5092907;28;20816;-73
2022/09/25 12:51:48;;;;;;;30.10;23.17;;;;;;;;;;5092607;28;20795;-73
2022/09/25 12:54:21;;;;;;;32.57;24.07;;;;;;;;;;5092415;28;20466;-73
2022/09/25 12:56:52;;;;;;;27.90;21.87;;;;;;;;;;5092741;28;20450;-73
2022/09/25 12:59:22;;;;;;;39.83;29.90;;;;;;;;;;5092536;28;20856;-73
2022/09/25 13:01:55;;;;;;;30.50;24.10;;;;;;;;;;5092595;28;20450;-72
2022/09/25 13:04:34;;;;;;;41.13;31.53;;;;;;;;;;5092135;28;21009;-73
2022/09/25 13:07:08;;;;;;;24.60;19.87;;;;;;;;;;5093462;28;20855;-73
2022/09/25 13:09:36;;;;;;;23.97;20.50;;;;;;;;;;5093397;28;20454;-72
2022/09/25 13:12:05;;;;;;;25.67;20.67;;;;;;;;;;5093318;28;20459;-72
2022/09/25 13:14:38;;;;;;;22.47;18.30;;;;;;;;;;5092961;28;20466;-72
2022/09/25 13:17:05;;;;;;;21.90;18.57;;;;;;;;;;5093036;28;20459;-72
2022/09/25 13:19:33;;;;;;;17.47;15.63;;;;;;;;;;5089980;28;20450;-72
2022/09/25 13:22:02;;;;;;;18.93;15.97;;;;;;;;;;5091336;28;20521;-72
2022/09/25 13:24:38;;;;;;;16.47;14.20;;;;;;;;;;5091096;28;20559;-72
2022/09/25 13:27:05;;;;;;;18.77;16.37;;;;;;;;;;5091480;28;20541;-72
2022/09/25 13:29:35;;;;;;;17.67;14.77;;;;;;;;;;5091488;28;20964;-72
2022/09/25 13:32:03;;;;;;;18.70;16.00;;;;;;;;;;5091537;28;20450;-72
2022/09/25 13:34:34;;;;;;;22.73;16.77;;;;;;;;;;5091151;28;20466;-72
2022/09/25 13:37:04;;;;;;;37.37;25.57;;;;;;;;;;5091685;28;20463;-72
2022/09/25 13:42:22;;;;;;;154.80;81.47;;;;;;;;;;5091476;28;20511;-73
2022/09/25 13:44:51;;;;;;;46.93;28.13;;;;;;;;;;5091356;28;20903;-72
2022/09/25 13:47:38;;;;;;;19.80;15.23;;;;;;;;;;5091477;28;20455;-72
2022/09/25 13:50:08;;;;;;;27.23;21.37;;;;;;;;;;5091310;28;20450;-72
2022/09/25 13:53:15;;;;;;;34.00;22.17;;;;;;;;;;5091545;28;20458;-72
2022/09/25 13:55:42;;;;;;;26.90;21.77;;;;;;;;;;5090595;28;20555;-72
2022/09/25 13:58:27;;;;;;;21.73;18.43;;;;;;;;;;5089988;28;20454;-72
2022/09/25 14:00:56;;;;;;;23.57;18.03;;;;;;;;;;5090665;28;20511;-72
2022/09/25 14:03:38;;;;;;;25.67;19.87;;;;;;;;;;5090992;28;20528;-72
2022/09/25 14:06:06;;;;;;;22.20;18.37;;;;;;;;;;5091166;28;20501;-72
2022/09/25 14:08:34;;;;;;;22.97;20.33;;;;;;;;;;5090996;28;20457;-72
2022/09/25 14:11:04;;;;;;;24.13;19.70;;;;;;;;;;5090970;28;20822;-73
2022/09/25 14:13:32;;;;;;;23.20;19.47;;;;;;;;;;5090860;28;20488;-72
2022/09/25 14:16:01;;;;;;;22.50;18.13;;;;;;;;;;5091203;28;20473;-72
2022/09/25 14:18:35;;;;;;;22.17;18.50;;;;;;;;;;5090994;28;20454;-72
2022/09/25 14:21:05;;;;;;;25.77;21.80;;;;;;;;;;5091222;28;20442;-72
2022/09/25 14:23:32;;;;;;;23.53;20.70;;;;;;;;;;5091193;28;20856;-72
2022/09/25 14:26:00;;;;;;;27.37;20.37;;;;;;;;;;5090832;28;20941;-72
2022/09/25 14:28:30;;;;;;;26.00;20.87;;;;;;;;;;5091645;28;20451;-72
2022/09/25 14:31:16;;;;;;;27.77;23.37;;;;;;;;;;5096165;28;20935;-72
2022/09/25 14:33:50;;;;;;;30.20;23.40;;;;;;;;;;5095911;28;20442;-72
2022/09/25 14:36:22;;;;;;;34.90;26.80;;;;;;;;;;5096219;28;20994;-72
2022/09/25 14:39:10;;;;;;;32.30;23.27;;;;;;;;;;5096292;28;20442;-72
2022/09/25 14:41:56;;;;;;;29.73;22.60;;;;;;;;;;5095888;28;20454;-72
2022/09/25 14:44:32;;;;;;;37.93;26.73;;;;;;;;;;5065219;28;20498;-72
2022/09/25 14:46:59;;;;;;;28.53;23.20;;;;;;;;;;5096035;28;20516;-72
2022/09/25 14:49:28;;;;;;;27.90;23.17;;;;;;;;;;5095954;28;20978;-72
2022/09/25 14:51:57;;;;;;;29.30;21.60;;;;;;;;;;5095961;28;20442;-73
2022/09/25 14:54:25;;;;;;;27.50;22.47;;;;;;;;;;5095597;28;20842;-73
2022/09/25 14:56:55;;;;;;;32.03;24.70;;;;;;;;;;5096111;28;20449;-72
2022/09/25 14:59:26;;;;;;;34.87;26.07;;;;;;;;;;5095727;28;20450;-73